sensor_id;sensor_type;location;lat;lon;timestamp;temperature;humidity
10986;DHT22;5546;48.714;8.738;2023-02-28T00:00:21;2.30;60.60
10986;DHT22;5546;48.714;8.738;2023-02-28T00:02:47;1.80;60.70
10986;DHT22;5546;48.714;8.738;2023-02-28T00:05:15;1.90;62.20
10986;DHT22;5546;48.714;8.738;2023-02-28T00:07:41;2.00;60.90
10986;DHT22;5546;48.714;8.738;2023-02-28T00:10:10;1.90;62.10
10986;DHT22;5546;48.714;8.738;2023-02-28T00:12:36;2.00;61.50
10986;DHT22;5546;48.714;8.738;2023-02-28T00:15:05;2.00;62.30
10986;DHT22;5546;48.714;8.738;2023-02-28T00:17:31;2.20;61.80
10986;DHT22;5546;48.714;8.738;2023-02-28T00:29:46;2.10;62.30
10986;DHT22;5546;48.714;8.738;2023-02-28T00:32:12;2.20;62.50
10986;DHT22;5546;48.714;8.738;2023-02-28T00:34:38;2.30;61.70
10986;DHT22;5546;48.714;8.738;2023-02-28T00:37:05;2.10;61.70
10986;DHT22;5546;48.714;8.738;2023-02-28T00:41:57;2.20;62.60
10986;DHT22;5546;48.714;8.738;2023-02-28T00:46:48;2.10;62.80
10986;DHT22;5546;48.714;8.738;2023-02-28T00:49:14;2.10;62.00
10986;DHT22;5546;48.714;8.738;2023-02-28T00:51:39;2.00;61.70
10986;DHT22;5546;48.714;8.738;2023-02-28T01:11:11;2.00;63.30
10986;DHT22;5546;48.714;8.738;2023-02-28T01:13:37;1.70;63.50
10986;DHT22;5546;48.714;8.738;2023-02-28T01:16:03;1.70;64.00
10986;DHT22;5546;48.714;8.738;2023-02-28T01:23:21;1.60;64.90
10986;DHT22;5546;48.714;8.738;2023-02-28T01:25:49;1.20;65.70
10986;DHT22;5546;48.714;8.738;2023-02-28T01:28:15;1.10;66.90
10986;DHT22;5546;48.714;8.738;2023-02-28T01:35:36;1.60;66.10
10986;DHT22;5546;48.714;8.738;2023-02-28T01:38:02;1.50;66.00
10986;DHT22;5546;48.714;8.738;2023-02-28T01:40:28;1.60;66.50
10986;DHT22;5546;48.714;8.738;2023-02-28T01:42:53;1.80;66.50
10986;DHT22;5546;48.714;8.738;2023-02-28T01:47:45;1.60;66.30
10986;DHT22;5546;48.714;8.738;2023-02-28T01:50:16;1.60;68.00
10986;DHT22;5546;48.714;8.738;2023-02-28T01:52:44;1.90;66.30
10986;DHT22;5546;48.714;8.738;2023-02-28T01:55:11;1.70;66.90
10986;DHT22;5546;48.714;8.738;2023-02-28T01:57:49;1.90;66.70
10986;DHT22;5546;48.714;8.738;2023-02-28T02:00:18;2.00;66.50
10986;DHT22;5546;48.714;8.738;2023-02-28T02:02:48;1.90;67.00
10986;DHT22;5546;48.714;8.738;2023-02-28T02:05:20;2.00;67.20
10986;DHT22;5546;48.714;8.738;2023-02-28T02:07:49;2.10;66.70
10986;DHT22;5546;48.714;8.738;2023-02-28T02:10:50;1.70;67.50
10986;DHT22;5546;48.714;8.738;2023-02-28T02:36:05;1.40;70.70
10986;DHT22;5546;48.714;8.738;2023-02-28T02:38:37;1.40;71.00
10986;DHT22;5546;48.714;8.738;2023-02-28T02:43:54;1.70;70.90
10986;DHT22;5546;48.714;8.738;2023-02-28T02:46:37;1.70;70.60
10986;DHT22;5546;48.714;8.738;2023-02-28T02:49:07;1.70;70.40
10986;DHT22;5546;48.714;8.738;2023-02-28T02:51:35;1.50;70.80
10986;DHT22;5546;48.714;8.738;2023-02-28T02:54:24;1.60;71.20
10986;DHT22;5546;48.714;8.738;2023-02-28T02:56:57;1.70;71.00
10986;DHT22;5546;48.714;8.738;2023-02-28T02:59:24;1.40;71.60
10986;DHT22;5546;48.714;8.738;2023-02-28T03:01:55;1.80;71.10
10986;DHT22;5546;48.714;8.738;2023-02-28T03:04:23;1.80;70.70
10986;DHT22;5546;48.714;8.738;2023-02-28T03:06:51;1.60;71.40
10986;DHT22;5546;48.714;8.738;2023-02-28T03:11:46;1.60;71.70
10986;DHT22;5546;48.714;8.738;2023-02-28T03:14:30;1.40;72.40
10986;DHT22;5546;48.714;8.738;2023-02-28T03:19:51;1.40;72.90
10986;DHT22;5546;48.714;8.738;2023-02-28T03:25:01;1.80;72.20
10986;DHT22;5546;48.714;8.738;2023-02-28T03:27:54;1.80;72.00
10986;DHT22;5546;48.714;8.738;2023-02-28T03:30:47;1.90;71.50
10986;DHT22;5546;48.714;8.738;2023-02-28T03:33:17;1.40;72.10
10986;DHT22;5546;48.714;8.738;2023-02-28T03:35:49;1.40;73.10
10986;DHT22;5546;48.714;8.738;2023-02-28T03:41:13;1.50;72.60
10986;DHT22;5546;48.714;8.738;2023-02-28T03:43:43;1.50;73.30
10986;DHT22;5546;48.714;8.738;2023-02-28T03:46:13;1.40;73.00
10986;DHT22;5546;48.714;8.738;2023-02-28T03:48:44;1.70;73.10
10986;DHT22;5546;48.714;8.738;2023-02-28T03:51:15;1.80;72.70
10986;DHT22;5546;48.714;8.738;2023-02-28T03:53:45;1.50;73.10
10986;DHT22;5546;48.714;8.738;2023-02-28T03:56:33;1.60;74.00
10986;DHT22;5546;48.714;8.738;2023-02-28T04:01:35;2.10;72.70
10986;DHT22;5546;48.714;8.738;2023-02-28T04:04:02;2.00;72.90
10986;DHT22;5546;48.714;8.738;2023-02-28T04:06:31;1.80;73.60
10986;DHT22;5546;48.714;8.738;2023-02-28T04:13:53;2.00;74.60
10986;DHT22;5546;48.714;8.738;2023-02-28T04:21:11;1.70;75.30
10986;DHT22;5546;48.714;8.738;2023-02-28T04:23:37;1.70;75.60
10986;DHT22;5546;48.714;8.738;2023-02-28T04:26:03;1.80;75.90
10986;DHT22;5546;48.714;8.738;2023-02-28T04:28:29;1.70;76.70
10986;DHT22;5546;48.714;8.738;2023-02-28T04:31:00;1.50;77.10
10986;DHT22;5546;48.714;8.738;2023-02-28T04:33:26;1.50;78.00
10986;DHT22;5546;48.714;8.738;2023-02-28T04:36:03;1.80;77.30
10986;DHT22;5546;48.714;8.738;2023-02-28T04:38:32;1.70;77.20
10986;DHT22;5546;48.714;8.738;2023-02-28T04:40:59;1.90;76.90
10986;DHT22;5546;48.714;8.738;2023-02-28T04:43:29;1.80;77.20
10986;DHT22;5546;48.714;8.738;2023-02-28T04:45:56;1.90;77.30
10986;DHT22;5546;48.714;8.738;2023-02-28T04:48:27;2.30;77.00
10986;DHT22;5546;48.714;8.738;2023-02-28T04:58:11;2.00;77.70
10986;DHT22;5546;48.714;8.738;2023-02-28T05:00:37;2.20;77.00
10986;DHT22;5546;48.714;8.738;2023-02-28T05:10:22;2.30;77.20
10986;DHT22;5546;48.714;8.738;2023-02-28T05:15:15;2.60;75.80
10986;DHT22;5546;48.714;8.738;2023-02-28T05:20:08;2.10;77.80
10986;DHT22;5546;48.714;8.738;2023-02-28T05:22:40;2.30;77.00
10986;DHT22;5546;48.714;8.738;2023-02-28T05:25:08;1.30;78.60
10986;DHT22;5546;48.714;8.738;2023-02-28T05:27:34;1.60;79.70
10986;DHT22;5546;48.714;8.738;2023-02-28T05:30:00;1.90;79.00
10986;DHT22;5546;48.714;8.738;2023-02-28T05:34:54;2.20;76.80
10986;DHT22;5546;48.714;8.738;2023-02-28T05:37:20;2.10;77.30
10986;DHT22;5546;48.714;8.738;2023-02-28T05:39:46;2.10;77.30
10986;DHT22;5546;48.714;8.738;2023-02-28T05:42:11;1.60;78.20
10986;DHT22;5546;48.714;8.738;2023-02-28T05:47:03;1.50;79.60
10986;DHT22;5546;48.714;8.738;2023-02-28T05:59:13;2.40;77.50
10986;DHT22;5546;48.714;8.738;2023-02-28T06:01:44;2.70;76.80
10986;DHT22;5546;48.714;8.738;2023-02-28T06:04:14;2.40;76.70
10986;DHT22;5546;48.714;8.738;2023-02-28T06:14:02;2.20;79.10
10986;DHT22;5546;48.714;8.738;2023-02-28T06:16:28;2.30;78.00
10986;DHT22;5546;48.714;8.738;2023-02-28T06:21:22;2.20;78.40
10986;DHT22;5546;48.714;8.738;2023-02-28T06:26:13;2.20;77.80
10986;DHT22;5546;48.714;8.738;2023-02-28T06:28:39;1.60;78.60
10986;DHT22;5546;48.714;8.738;2023-02-28T06:31:13;1.50;80.70
10986;DHT22;5546;48.714;8.738;2023-02-28T06:33:39;1.60;80.10
10986;DHT22;5546;48.714;8.738;2023-02-28T06:36:06;2.10;79.20
10986;DHT22;5546;48.714;8.738;2023-02-28T06:40:59;2.30;78.50
10986;DHT22;5546;48.714;8.738;2023-02-28T06:43:26;2.40;78.60
10986;DHT22;5546;48.714;8.738;2023-02-28T06:45:55;2.50;77.50
10986;DHT22;5546;48.714;8.738;2023-02-28T06:48:21;2.20;78.50
10986;DHT22;5546;48.714;8.738;2023-02-28T06:53:13;1.80;79.50
10986;DHT22;5546;48.714;8.738;2023-02-28T06:55:39;1.90;80.80
10986;DHT22;5546;48.714;8.738;2023-02-28T07:00:43;2.50;79.10
10986;DHT22;5546;48.714;8.738;2023-02-28T07:03:09;2.80;78.40
10986;DHT22;5546;48.714;8.738;2023-02-28T07:05:36;3.00;77.90
10986;DHT22;5546;48.714;8.738;2023-02-28T07:08:02;3.00;77.60
10986;DHT22;5546;48.714;8.738;2023-02-28T07:10:28;2.80;76.20
10986;DHT22;5546;48.714;8.738;2023-02-28T07:12:54;2.70;77.70
10986;DHT22;5546;48.714;8.738;2023-02-28T07:17:45;2.40;78.40
10986;DHT22;5546;48.714;8.738;2023-02-28T07:20:11;2.50;78.00
10986;DHT22;5546;48.714;8.738;2023-02-28T07:22:37;2.60;78.00
10986;DHT22;5546;48.714;8.738;2023-02-28T07:27:29;3.30;76.50
10986;DHT22;5546;48.714;8.738;2023-02-28T07:29:55;3.00;76.30
10986;DHT22;5546;48.714;8.738;2023-02-28T07:37:14;2.80;77.40
10986;DHT22;5546;48.714;8.738;2023-02-28T07:44:36;3.30;75.70
10986;DHT22;5546;48.714;8.738;2023-02-28T07:47:06;3.40;76.00
10986;DHT22;5546;48.714;8.738;2023-02-28T07:49:32;3.00;75.70
10986;DHT22;5546;48.714;8.738;2023-02-28T07:51:57;3.20;75.70
10986;DHT22;5546;48.714;8.738;2023-02-28T07:54:23;3.10;75.00
10986;DHT22;5546;48.714;8.738;2023-02-28T08:06:32;3.00;75.20
10986;DHT22;5546;48.714;8.738;2023-02-28T08:08:58;2.60;75.60
10986;DHT22;5546;48.714;8.738;2023-02-28T08:11:23;2.50;77.60
10986;DHT22;5546;48.714;8.738;2023-02-28T08:13:50;2.90;76.70
10986;DHT22;5546;48.714;8.738;2023-02-28T08:18:48;3.60;73.70
10986;DHT22;5546;48.714;8.738;2023-02-28T08:21:13;3.30;73.80
10986;DHT22;5546;48.714;8.738;2023-02-28T08:23:39;3.20;74.60
10986;DHT22;5546;48.714;8.738;2023-02-28T08:26:04;3.70;73.60
10986;DHT22;5546;48.714;8.738;2023-02-28T08:28:30;3.90;73.40
10986;DHT22;5546;48.714;8.738;2023-02-28T08:33:22;3.70;73.10
10986;DHT22;5546;48.714;8.738;2023-02-28T08:38:14;3.90;72.60
10986;DHT22;5546;48.714;8.738;2023-02-28T08:47:57;3.70;72.80
10986;DHT22;5546;48.714;8.738;2023-02-28T08:50:23;3.40;73.10
10986;DHT22;5546;48.714;8.738;2023-02-28T09:00:07;3.70;73.20
10986;DHT22;5546;48.714;8.738;2023-02-28T09:02:33;3.80;71.50
10986;DHT22;5546;48.714;8.738;2023-02-28T09:04:59;3.70;71.60
10986;DHT22;5546;48.714;8.738;2023-02-28T09:12:24;3.70;72.40
10986;DHT22;5546;48.714;8.738;2023-02-28T09:14:51;3.70;72.40
10986;DHT22;5546;48.714;8.738;2023-02-28T09:22:10;3.90;72.00
10986;DHT22;5546;48.714;8.738;2023-02-28T09:24:37;3.90;71.00
10986;DHT22;5546;48.714;8.738;2023-02-28T09:27:03;3.50;72.10
10986;DHT22;5546;48.714;8.738;2023-02-28T09:36:49;4.00;71.60
10986;DHT22;5546;48.714;8.738;2023-02-28T09:41:48;4.30;70.30
10986;DHT22;5546;48.714;8.738;2023-02-28T09:44:28;4.60;70.30
10986;DHT22;5546;48.714;8.738;2023-02-28T09:47:05;5.00;69.00
10986;DHT22;5546;48.714;8.738;2023-02-28T09:49:40;4.40;69.80
10986;DHT22;5546;48.714;8.738;2023-02-28T09:52:13;4.40;69.70
10986;DHT22;5546;48.714;8.738;2023-02-28T09:54:41;3.50;70.90
10986;DHT22;5546;48.714;8.738;2023-02-28T09:59:51;3.70;71.50
10986;DHT22;5546;48.714;8.738;2023-02-28T10:02:55;3.50;72.10
10986;DHT22;5546;48.714;8.738;2023-02-28T10:05:39;3.90;71.30
10986;DHT22;5546;48.714;8.738;2023-02-28T10:10:49;3.70;70.80
10986;DHT22;5546;48.714;8.738;2023-02-28T10:13:34;3.70;71.70
10986;DHT22;5546;48.714;8.738;2023-02-28T10:16:07;3.80;71.10
10986;DHT22;5546;48.714;8.738;2023-02-28T10:18:48;3.50;71.40
10986;DHT22;5546;48.714;8.738;2023-02-28T10:21:22;3.60;72.10
10986;DHT22;5546;48.714;8.738;2023-02-28T10:23:53;3.20;71.70
10986;DHT22;5546;48.714;8.738;2023-02-28T10:26:21;3.40;72.00
10986;DHT22;5546;48.714;8.738;2023-02-28T10:28:51;3.60;71.60
10986;DHT22;5546;48.714;8.738;2023-02-28T10:31:19;4.20;71.00
10986;DHT22;5546;48.714;8.738;2023-02-28T10:33:45;4.60;68.90
10986;DHT22;5546;48.714;8.738;2023-02-28T10:36:20;4.60;68.30
10986;DHT22;5546;48.714;8.738;2023-02-28T10:38:47;4.10;68.70
10986;DHT22;5546;48.714;8.738;2023-02-28T10:41:30;4.20;69.60
10986;DHT22;5546;48.714;8.738;2023-02-28T10:44:21;4.00;68.60
10986;DHT22;5546;48.714;8.738;2023-02-28T10:46:48;3.50;69.10
10986;DHT22;5546;48.714;8.738;2023-02-28T10:49:21;3.30;69.60
10986;DHT22;5546;48.714;8.738;2023-02-28T10:51:51;3.90;69.00
10986;DHT22;5546;48.714;8.738;2023-02-28T10:54:29;4.00;68.60
10986;DHT22;5546;48.714;8.738;2023-02-28T10:57:16;3.80;68.10
10986;DHT22;5546;48.714;8.738;2023-02-28T11:02:29;4.30;67.70
10986;DHT22;5546;48.714;8.738;2023-02-28T11:04:55;4.00;68.00
10986;DHT22;5546;48.714;8.738;2023-02-28T11:07:22;4.00;68.40
10986;DHT22;5546;48.714;8.738;2023-02-28T11:09:52;4.00;68.60
10986;DHT22;5546;48.714;8.738;2023-02-28T11:15:03;4.70;66.40
10986;DHT22;5546;48.714;8.738;2023-02-28T11:17:31;4.60;66.70
10986;DHT22;5546;48.714;8.738;2023-02-28T11:19:59;4.70;65.70
10986;DHT22;5546;48.714;8.738;2023-02-28T11:22:31;5.00;64.80
10986;DHT22;5546;48.714;8.738;2023-02-28T11:25:00;4.90;64.20
10986;DHT22;5546;48.714;8.738;2023-02-28T11:27:48;4.70;65.70
10986;DHT22;5546;48.714;8.738;2023-02-28T11:30:34;4.80;65.30
10986;DHT22;5546;48.714;8.738;2023-02-28T11:35:48;4.60;65.40
10986;DHT22;5546;48.714;8.738;2023-02-28T11:43:20;5.40;64.50
10986;DHT22;5546;48.714;8.738;2023-02-28T11:48:22;6.50;60.80
10986;DHT22;5546;48.714;8.738;2023-02-28T12:03:58;5.10;64.00
10986;DHT22;5546;48.714;8.738;2023-02-28T12:06:42;5.90;63.10
10986;DHT22;5546;48.714;8.738;2023-02-28T12:12:37;7.00;59.70
10986;DHT22;5546;48.714;8.738;2023-02-28T12:15:23;7.90;59.00
10986;DHT22;5546;48.714;8.738;2023-02-28T12:18:06;9.70;56.80
10986;DHT22;5546;48.714;8.738;2023-02-28T12:23:19;11.90;52.10
10986;DHT22;5546;48.714;8.738;2023-02-28T12:28:48;12.10;49.50
10986;DHT22;5546;48.714;8.738;2023-02-28T12:31:19;11.80;49.60
10986;DHT22;5546;48.714;8.738;2023-02-28T12:33:50;12.80;48.30
10986;DHT22;5546;48.714;8.738;2023-02-28T12:36:19;14.30;46.20
10986;DHT22;5546;48.714;8.738;2023-02-28T12:38:58;14.10;45.70
10986;DHT22;5546;48.714;8.738;2023-02-28T12:41:42;15.00;45.70
10986;DHT22;5546;48.714;8.738;2023-02-28T12:44:35;16.30;42.80
10986;DHT22;5546;48.714;8.738;2023-02-28T12:47:04;16.60;41.50
10986;DHT22;5546;48.714;8.738;2023-02-28T12:49:33;18.10;40.80
10986;DHT22;5546;48.714;8.738;2023-02-28T12:52:02;16.40;40.40
10986;DHT22;5546;48.714;8.738;2023-02-28T12:54:49;16.30;40.30
10986;DHT22;5546;48.714;8.738;2023-02-28T12:57:33;15.60;41.50
10986;DHT22;5546;48.714;8.738;2023-02-28T13:00:04;15.90;41.70
10986;DHT22;5546;48.714;8.738;2023-02-28T13:08:36;17.40;39.80
10986;DHT22;5546;48.714;8.738;2023-02-28T13:11:33;18.50;37.80
10986;DHT22;5546;48.714;8.738;2023-02-28T13:14:05;16.30;40.50
10986;DHT22;5546;48.714;8.738;2023-02-28T13:19:28;13.20;44.20
10986;DHT22;5546;48.714;8.738;2023-02-28T13:21:55;10.40;49.10
10986;DHT22;5546;48.714;8.738;2023-02-28T13:29:43;8.90;53.10
10986;DHT22;5546;48.714;8.738;2023-02-28T13:34:37;7.80;54.30
10986;DHT22;5546;48.714;8.738;2023-02-28T13:39:54;9.40;52.80
10986;DHT22;5546;48.714;8.738;2023-02-28T13:47:38;9.60;51.90
10986;DHT22;5546;48.714;8.738;2023-02-28T13:56:18;10.40;51.30
10986;DHT22;5546;48.714;8.738;2023-02-28T14:06:38;9.20;52.70
10986;DHT22;5546;48.714;8.738;2023-02-28T14:11:39;9.20;53.20
10986;DHT22;5546;48.714;8.738;2023-02-28T14:14:06;9.00;53.30
10986;DHT22;5546;48.714;8.738;2023-02-28T14:16:45;8.10;54.40
10986;DHT22;5546;48.714;8.738;2023-02-28T14:19:14;7.70;55.60
10986;DHT22;5546;48.714;8.738;2023-02-28T14:22:21;7.60;55.40
10986;DHT22;5546;48.714;8.738;2023-02-28T14:38:38;7.80;55.80
10986;DHT22;5546;48.714;8.738;2023-02-28T14:41:14;8.30;54.90
10986;DHT22;5546;48.714;8.738;2023-02-28T14:43:49;8.20;54.70
10986;DHT22;5546;48.714;8.738;2023-02-28T14:46:17;8.10;54.90
10986;DHT22;5546;48.714;8.738;2023-02-28T14:48:46;7.50;56.40
10986;DHT22;5546;48.714;8.738;2023-02-28T14:51:13;7.20;57.00
10986;DHT22;5546;48.714;8.738;2023-02-28T14:53:43;7.70;56.50
10986;DHT22;5546;48.714;8.738;2023-02-28T14:56:24;8.10;55.80
10986;DHT22;5546;48.714;8.738;2023-02-28T14:58:55;7.60;56.00
10986;DHT22;5546;48.714;8.738;2023-02-28T15:01:22;7.50;56.80
10986;DHT22;5546;48.714;8.738;2023-02-28T15:03:48;7.90;56.20
10986;DHT22;5546;48.714;8.738;2023-02-28T15:06:22;8.00;56.30
10986;DHT22;5546;48.714;8.738;2023-02-28T15:09:10;7.60;56.40
10986;DHT22;5546;48.714;8.738;2023-02-28T15:11:38;7.40;57.30
10986;DHT22;5546;48.714;8.738;2023-02-28T15:14:04;7.70;56.60
10986;DHT22;5546;48.714;8.738;2023-02-28T15:16:57;7.90;55.90
10986;DHT22;5546;48.714;8.738;2023-02-28T15:19:26;7.50;56.70
10986;DHT22;5546;48.714;8.738;2023-02-28T15:22:15;7.60;56.50
10986;DHT22;5546;48.714;8.738;2023-02-28T15:24:46;7.40;56.80
10986;DHT22;5546;48.714;8.738;2023-02-28T15:29:48;6.90;58.50
10986;DHT22;5546;48.714;8.738;2023-02-28T15:32:29;7.40;57.50
10986;DHT22;5546;48.714;8.738;2023-02-28T15:34:56;8.00;56.70
10986;DHT22;5546;48.714;8.738;2023-02-28T15:37:44;7.90;56.80
10986;DHT22;5546;48.714;8.738;2023-02-28T15:40:30;8.30;56.10
10986;DHT22;5546;48.714;8.738;2023-02-28T15:43:07;8.30;55.50
10986;DHT22;5546;48.714;8.738;2023-02-28T15:45:38;8.10;56.40
10986;DHT22;5546;48.714;8.738;2023-02-28T15:48:23;8.10;56.40
10986;DHT22;5546;48.714;8.738;2023-02-28T15:50:52;8.30;56.10
10986;DHT22;5546;48.714;8.738;2023-02-28T15:53:25;7.90;56.00
10986;DHT22;5546;48.714;8.738;2023-02-28T15:56:01;7.80;56.50
10986;DHT22;5546;48.714;8.738;2023-02-28T15:58:27;8.00;56.40
10986;DHT22;5546;48.714;8.738;2023-02-28T16:01:16;7.90;56.60
10986;DHT22;5546;48.714;8.738;2023-02-28T16:03:49;8.10;56.60
10986;DHT22;5546;48.714;8.738;2023-02-28T16:06:43;8.20;56.00
10986;DHT22;5546;48.714;8.738;2023-02-28T16:09:18;7.40;56.40
10986;DHT22;5546;48.714;8.738;2023-02-28T16:11:48;7.40;57.20
10986;DHT22;5546;48.714;8.738;2023-02-28T16:14:26;7.20;58.10
10986;DHT22;5546;48.714;8.738;2023-02-28T16:16:55;7.20;58.60
10986;DHT22;5546;48.714;8.738;2023-02-28T16:19:21;7.50;58.30
10986;DHT22;5546;48.714;8.738;2023-02-28T16:21:49;7.70;57.60
10986;DHT22;5546;48.714;8.738;2023-02-28T16:26:42;7.40;58.30
10986;DHT22;5546;48.714;8.738;2023-02-28T16:29:13;7.70;57.70
10986;DHT22;5546;48.714;8.738;2023-02-28T16:34:05;7.50;59.50
10986;DHT22;5546;48.714;8.738;2023-02-28T16:36:31;7.30;60.40
10986;DHT22;5546;48.714;8.738;2023-02-28T16:41:25;7.20;60.70
10986;DHT22;5546;48.714;8.738;2023-02-28T16:43:54;7.40;60.30
10986;DHT22;5546;48.714;8.738;2023-02-28T16:46:25;7.40;60.70
10986;DHT22;5546;48.714;8.738;2023-02-28T16:48:52;7.20;60.60
10986;DHT22;5546;48.714;8.738;2023-02-28T16:51:18;7.00;61.50
10986;DHT22;5546;48.714;8.738;2023-02-28T16:53:44;7.10;62.40
10986;DHT22;5546;48.714;8.738;2023-02-28T16:56:18;6.90;62.50
10986;DHT22;5546;48.714;8.738;2023-02-28T16:58:44;6.90;62.40
10986;DHT22;5546;48.714;8.738;2023-02-28T17:01:10;6.50;62.90
10986;DHT22;5546;48.714;8.738;2023-02-28T17:03:35;6.00;64.90
10986;DHT22;5546;48.714;8.738;2023-02-28T17:06:03;6.10;65.20
10986;DHT22;5546;48.714;8.738;2023-02-28T17:10:55;6.50;63.70
10986;DHT22;5546;48.714;8.738;2023-02-28T17:15:47;6.30;65.30
10986;DHT22;5546;48.714;8.738;2023-02-28T17:18:18;6.20;65.40
10986;DHT22;5546;48.714;8.738;2023-02-28T17:20:47;5.90;66.20
10986;DHT22;5546;48.714;8.738;2023-02-28T17:23:13;5.90;66.30
10986;DHT22;5546;48.714;8.738;2023-02-28T17:28:05;5.50;68.00
10986;DHT22;5546;48.714;8.738;2023-02-28T17:30:33;5.70;68.20
10986;DHT22;5546;48.714;8.738;2023-02-28T17:35:26;5.50;67.50
10986;DHT22;5546;48.714;8.738;2023-02-28T17:40:20;5.50;68.50
10986;DHT22;5546;48.714;8.738;2023-02-28T17:45:14;5.40;68.80
10986;DHT22;5546;48.714;8.738;2023-02-28T17:47:41;5.60;69.00
10986;DHT22;5546;48.714;8.738;2023-02-28T17:50:15;5.70;68.80
10986;DHT22;5546;48.714;8.738;2023-02-28T18:04:52;5.20;71.20
10986;DHT22;5546;48.714;8.738;2023-02-28T18:07:19;5.50;70.00
10986;DHT22;5546;48.714;8.738;2023-02-28T18:09:45;5.30;69.90
10986;DHT22;5546;48.714;8.738;2023-02-28T18:12:11;5.30;70.20
10986;DHT22;5546;48.714;8.738;2023-02-28T18:17:02;5.00;71.40
10986;DHT22;5546;48.714;8.738;2023-02-28T18:19:28;4.60;73.20
10986;DHT22;5546;48.714;8.738;2023-02-28T18:21:53;4.70;72.90
10986;DHT22;5546;48.714;8.738;2023-02-28T18:24:20;4.70;72.40
10986;DHT22;5546;48.714;8.738;2023-02-28T18:29:18;4.50;73.30
10986;DHT22;5546;48.714;8.738;2023-02-28T18:34:11;4.70;73.50
10986;DHT22;5546;48.714;8.738;2023-02-28T18:43:55;4.70;74.30
10986;DHT22;5546;48.714;8.738;2023-02-28T18:48:48;4.50;74.10
10986;DHT22;5546;48.714;8.738;2023-02-28T18:51:20;4.40;74.20
10986;DHT22;5546;48.714;8.738;2023-02-28T18:53:46;4.20;74.30
10986;DHT22;5546;48.714;8.738;2023-02-28T18:56:14;3.90;74.90
10986;DHT22;5546;48.714;8.738;2023-02-28T18:58:41;3.60;77.10
10986;DHT22;5546;48.714;8.738;2023-02-28T19:01:17;3.80;76.10
10986;DHT22;5546;48.714;8.738;2023-02-28T19:03:44;3.70;77.00
10986;DHT22;5546;48.714;8.738;2023-02-28T19:06:10;3.70;76.80
10986;DHT22;5546;48.714;8.738;2023-02-28T19:08:36;3.80;76.80
10986;DHT22;5546;48.714;8.738;2023-02-28T19:11:13;3.90;76.80
10986;DHT22;5546;48.714;8.738;2023-02-28T19:16:06;3.90;76.70
10986;DHT22;5546;48.714;8.738;2023-02-28T19:18:32;4.00;76.80
10986;DHT22;5546;48.714;8.738;2023-02-28T19:20:58;4.00;76.60
10986;DHT22;5546;48.714;8.738;2023-02-28T19:23:25;4.00;75.90
10986;DHT22;5546;48.714;8.738;2023-02-28T19:30:47;3.90;75.60
10986;DHT22;5546;48.714;8.738;2023-02-28T19:33:14;3.70;76.20
10986;DHT22;5546;48.714;8.738;2023-02-28T19:35:41;3.60;76.40
10986;DHT22;5546;48.714;8.738;2023-02-28T19:45:24;3.60;77.00
10986;DHT22;5546;48.714;8.738;2023-02-28T19:47:50;3.60;77.10
10986;DHT22;5546;48.714;8.738;2023-02-28T19:50:16;3.40;77.30
10986;DHT22;5546;48.714;8.738;2023-02-28T19:52:41;3.30;78.00
10986;DHT22;5546;48.714;8.738;2023-02-28T19:55:08;3.50;78.10
10986;DHT22;5546;48.714;8.738;2023-02-28T19:57:34;3.70;77.50
10986;DHT22;5546;48.714;8.738;2023-02-28T20:02:26;3.70;77.60
10986;DHT22;5546;48.714;8.738;2023-02-28T20:07:19;3.50;77.80
10986;DHT22;5546;48.714;8.738;2023-02-28T20:09:46;3.60;78.00
10986;DHT22;5546;48.714;8.738;2023-02-28T20:14:37;3.50;77.90
10986;DHT22;5546;48.714;8.738;2023-02-28T20:17:03;3.60;77.80
10986;DHT22;5546;48.714;8.738;2023-02-28T20:19:29;3.40;78.50
10986;DHT22;5546;48.714;8.738;2023-02-28T20:21:55;3.40;78.80
10986;DHT22;5546;48.714;8.738;2023-02-28T20:24:21;3.60;78.60
10986;DHT22;5546;48.714;8.738;2023-02-28T20:26:53;3.40;78.30
10986;DHT22;5546;48.714;8.738;2023-02-28T20:29:19;3.40;78.40
10986;DHT22;5546;48.714;8.738;2023-02-28T20:31:45;3.40;78.40
10986;DHT22;5546;48.714;8.738;2023-02-28T20:34:11;3.30;78.70
10986;DHT22;5546;48.714;8.738;2023-02-28T20:39:03;3.20;78.80
10986;DHT22;5546;48.714;8.738;2023-02-28T20:43:56;3.20;79.20
10986;DHT22;5546;48.714;8.738;2023-02-28T20:46:29;3.20;79.40
10986;DHT22;5546;48.714;8.738;2023-02-28T20:48:55;3.10;79.50
10986;DHT22;5546;48.714;8.738;2023-02-28T20:51:21;3.00;79.90
10986;DHT22;5546;48.714;8.738;2023-02-28T20:56:15;3.20;78.90
10986;DHT22;5546;48.714;8.738;2023-02-28T20:58:42;3.20;79.10
10986;DHT22;5546;48.714;8.738;2023-02-28T21:01:17;3.10;78.60
10986;DHT22;5546;48.714;8.738;2023-02-28T21:03:53;3.20;78.40
10986;DHT22;5546;48.714;8.738;2023-02-28T21:06:23;3.10;78.50
10986;DHT22;5546;48.714;8.738;2023-02-28T21:11:16;3.00;79.10
10986;DHT22;5546;48.714;8.738;2023-02-28T21:13:42;3.00;79.50
10986;DHT22;5546;48.714;8.738;2023-02-28T21:16:11;3.00;79.50
10986;DHT22;5546;48.714;8.738;2023-02-28T21:18:38;3.10;79.30
10986;DHT22;5546;48.714;8.738;2023-02-28T21:21:18;3.30;79.20
10986;DHT22;5546;48.714;8.738;2023-02-28T21:23:45;3.20;79.50
10986;DHT22;5546;48.714;8.738;2023-02-28T21:26:19;2.90;79.70
10986;DHT22;5546;48.714;8.738;2023-02-28T21:28:53;3.00;80.10
10986;DHT22;5546;48.714;8.738;2023-02-28T21:31:20;2.90;80.50
10986;DHT22;5546;48.714;8.738;2023-02-28T21:33:47;2.80;81.00
10986;DHT22;5546;48.714;8.738;2023-02-28T21:36:15;2.70;81.20
10986;DHT22;5546;48.714;8.738;2023-02-28T21:38:42;3.00;80.30
10986;DHT22;5546;48.714;8.738;2023-02-28T21:41:10;3.10;79.60
10986;DHT22;5546;48.714;8.738;2023-02-28T21:43:36;2.80;80.30
10986;DHT22;5546;48.714;8.738;2023-02-28T21:46:03;2.70;80.60
10986;DHT22;5546;48.714;8.738;2023-02-28T21:48:30;2.90;80.00
10986;DHT22;5546;48.714;8.738;2023-02-28T21:50:57;2.90;80.00
10986;DHT22;5546;48.714;8.738;2023-02-28T21:55:49;2.90;80.50
10986;DHT22;5546;48.714;8.738;2023-02-28T22:00:41;2.80;80.50
10986;DHT22;5546;48.714;8.738;2023-02-28T22:03:07;2.80;81.00
10986;DHT22;5546;48.714;8.738;2023-02-28T22:07:58;2.70;80.80
10986;DHT22;5546;48.714;8.738;2023-02-28T22:10:24;2.70;80.80
10986;DHT22;5546;48.714;8.738;2023-02-28T22:17:41;2.40;81.80
10986;DHT22;5546;48.714;8.738;2023-02-28T22:20:09;2.50;81.80
10986;DHT22;5546;48.714;8.738;2023-02-28T22:29:54;2.50;82.10
10986;DHT22;5546;48.714;8.738;2023-02-28T22:34:50;2.60;82.10
10986;DHT22;5546;48.714;8.738;2023-02-28T22:39:41;2.30;83.00
10986;DHT22;5546;48.714;8.738;2023-02-28T22:42:07;2.30;82.60
10986;DHT22;5546;48.714;8.738;2023-02-28T22:44:34;2.30;82.10
10986;DHT22;5546;48.714;8.738;2023-02-28T22:49:26;2.00;83.50
10986;DHT22;5546;48.714;8.738;2023-02-28T22:51:51;2.10;83.40
10986;DHT22;5546;48.714;8.738;2023-02-28T22:54:17;2.10;83.00
10986;DHT22;5546;48.714;8.738;2023-02-28T22:59:11;2.20;83.20
10986;DHT22;5546;48.714;8.738;2023-02-28T23:01:38;2.10;83.50
10986;DHT22;5546;48.714;8.738;2023-02-28T23:04:05;2.10;83.40
10986;DHT22;5546;48.714;8.738;2023-02-28T23:06:36;2.00;83.30
10986;DHT22;5546;48.714;8.738;2023-02-28T23:09:14;1.90;83.80
10986;DHT22;5546;48.714;8.738;2023-02-28T23:11:44;2.00;83.90
10986;DHT22;5546;48.714;8.738;2023-02-28T23:14:11;2.00;84.10
10986;DHT22;5546;48.714;8.738;2023-02-28T23:16:45;2.10;83.70
10986;DHT22;5546;48.714;8.738;2023-02-28T23:19:19;2.20;83.10
10986;DHT22;5546;48.714;8.738;2023-02-28T23:24:13;2.10;83.40